sensor_id;sensor_type;location;lat;lon;timestamp;P1;durP1;ratioP1;P2;durP2;ratioP2
9224;SDS011;4647;48.072;11.616;2023-11-19T00:00:24;2.57;;;2.37;;
9224;SDS011;4647;48.072;11.616;2023-11-19T00:02:50;2.07;;;1.83;;
9224;SDS011;4647;48.072;11.616;2023-11-19T00:05:19;2.40;;;2.20;;
9224;SDS011;4647;48.072;11.616;2023-11-19T00:07:47;3.27;;;3.07;;
9224;SDS011;4647;48.072;11.616;2023-11-19T00:10:16;3.63;;;3.30;;
9224;SDS011;4647;48.072;11.616;2023-11-19T00:12:46;3.93;;;3.57;;
9224;SDS011;4647;48.072;11.616;2023-11-19T00:15:16;2.80;;;2.20;;
9224;SDS011;4647;48.072;11.616;2023-11-19T00:17:48;2.60;;;2.40;;
9224;SDS011;4647;48.072;11.616;2023-11-19T00:20:16;2.83;;;2.63;;
9224;SDS011;4647;48.072;11.616;2023-11-19T00:22:47;3.43;;;3.13;;
9224;SDS011;4647;48.072;11.616;2023-11-19T00:25:16;2.63;;;2.13;;
9224;SDS011;4647;48.072;11.616;2023-11-19T00:27:44;2.20;;;2.00;;
9224;SDS011;4647;48.072;11.616;2023-11-19T00:30:13;2.47;;;2.27;;
9224;SDS011;4647;48.072;11.616;2023-11-19T00:32:42;5.30;;;3.83;;
9224;SDS011;4647;48.072;11.616;2023-11-19T00:35:13;2.30;;;2.10;;
9224;SDS011;4647;48.072;11.616;2023-11-19T00:37:42;2.30;;;2.10;;
9224;SDS011;4647;48.072;11.616;2023-11-19T00:40:12;2.10;;;1.90;;
9224;SDS011;4647;48.072;11.616;2023-11-19T00:42:43;2.73;;;2.53;;
9224;SDS011;4647;48.072;11.616;2023-11-19T00:45:12;3.43;;;3.13;;
9224;SDS011;4647;48.072;11.616;2023-11-19T00:47:41;3.93;;;3.50;;
9224;SDS011;4647;48.072;11.616;2023-11-19T00:50:10;3.33;;;3.03;;
9224;SDS011;4647;48.072;11.616;2023-11-19T00:52:41;3.23;;;2.93;;
9224;SDS011;4647;48.072;11.616;2023-11-19T00:55:10;3.40;;;2.80;;
9224;SDS011;4647;48.072;11.616;2023-11-19T00:57:38;2.60;;;2.40;;
9224;SDS011;4647;48.072;11.616;2023-11-19T01:00:07;3.67;;;3.37;;
9224;SDS011;4647;48.072;11.616;2023-11-19T01:02:43;2.67;;;2.47;;
9224;SDS011;4647;48.072;11.616;2023-11-19T01:05:11;2.87;;;2.63;;
9224;SDS011;4647;48.072;11.616;2023-11-19T01:07:45;2.40;;;2.20;;
9224;SDS011;4647;48.072;11.616;2023-11-19T01:10:14;2.23;;;2.00;;
9224;SDS011;4647;48.072;11.616;2023-11-19T01:12:43;2.30;;;2.10;;
9224;SDS011;4647;48.072;11.616;2023-11-19T01:15:12;2.37;;;2.17;;
9224;SDS011;4647;48.072;11.616;2023-11-19T01:17:40;2.13;;;1.93;;
9224;SDS011;4647;48.072;11.616;2023-11-19T01:20:09;3.20;;;2.90;;
9224;SDS011;4647;48.072;11.616;2023-11-19T01:22:39;2.50;;;2.30;;
9224;SDS011;4647;48.072;11.616;2023-11-19T01:25:10;3.20;;;2.90;;
9224;SDS011;4647;48.072;11.616;2023-11-19T01:27:39;2.80;;;2.43;;
9224;SDS011;4647;48.072;11.616;2023-11-19T01:30:08;2.60;;;2.40;;
9224;SDS011;4647;48.072;11.616;2023-11-19T01:32:38;2.00;;;1.90;;
9224;SDS011;4647;48.072;11.616;2023-11-19T01:35:07;2.37;;;2.17;;
9224;SDS011;4647;48.072;11.616;2023-11-19T01:37:35;1.90;;;1.80;;
9224;SDS011;4647;48.072;11.616;2023-11-19T01:40:04;4.07;;;3.70;;
9224;SDS011;4647;48.072;11.616;2023-11-19T01:42:38;3.37;;;3.07;;
9224;SDS011;4647;48.072;11.616;2023-11-19T01:45:08;2.43;;;2.23;;
9224;SDS011;4647;48.072;11.616;2023-11-19T01:47:35;4.80;;;3.73;;
9224;SDS011;4647;48.072;11.616;2023-11-19T01:50:04;2.77;;;2.57;;
9224;SDS011;4647;48.072;11.616;2023-11-19T01:52:35;3.10;;;2.40;;
9224;SDS011;4647;48.072;11.616;2023-11-19T01:55:05;2.87;;;2.67;;
9224;SDS011;4647;48.072;11.616;2023-11-19T01:57:39;3.53;;;3.23;;
9224;SDS011;4647;48.072;11.616;2023-11-19T02:00:09;3.90;;;2.37;;
9224;SDS011;4647;48.072;11.616;2023-11-19T02:02:39;2.77;;;2.53;;
9224;SDS011;4647;48.072;11.616;2023-11-19T02:05:08;1.83;;;1.73;;
9224;SDS011;4647;48.072;11.616;2023-11-19T02:07:37;3.23;;;1.93;;
9224;SDS011;4647;48.072;11.616;2023-11-19T02:10:05;1.70;;;1.60;;
9224;SDS011;4647;48.072;11.616;2023-11-19T02:12:40;1.93;;;1.83;;
9224;SDS011;4647;48.072;11.616;2023-11-19T02:15:10;1.87;;;1.60;;
9224;SDS011;4647;48.072;11.616;2023-11-19T02:17:39;1.60;;;1.50;;
9224;SDS011;4647;48.072;11.616;2023-11-19T02:20:08;1.50;;;1.33;;
9224;SDS011;4647;48.072;11.616;2023-11-19T02:22:40;1.47;;;1.30;;
9224;SDS011;4647;48.072;11.616;2023-11-19T02:25:11;1.50;;;1.40;;
9224;SDS011;4647;48.072;11.616;2023-11-19T02:27:48;1.93;;;1.50;;
9224;SDS011;4647;48.072;11.616;2023-11-19T02:30:23;1.50;;;1.40;;
9224;SDS011;4647;48.072;11.616;2023-11-19T02:32:53;1.53;;;1.37;;
9224;SDS011;4647;48.072;11.616;2023-11-19T02:35:22;1.40;;;1.30;;
9224;SDS011;4647;48.072;11.616;2023-11-19T02:37:51;1.57;;;1.30;;
9224;SDS011;4647;48.072;11.616;2023-11-19T02:40:19;2.00;;;1.57;;
9224;SDS011;4647;48.072;11.616;2023-11-19T02:42:52;1.37;;;1.27;;
9224;SDS011;4647;48.072;11.616;2023-11-19T02:45:21;1.63;;;1.53;;
9224;SDS011;4647;48.072;11.616;2023-11-19T02:47:50;2.10;;;1.30;;
9224;SDS011;4647;48.072;11.616;2023-11-19T02:50:20;2.87;;;1.80;;
9224;SDS011;4647;48.072;11.616;2023-11-19T02:52:51;1.37;;;1.27;;
9224;SDS011;4647;48.072;11.616;2023-11-19T02:55:21;1.60;;;1.17;;
9224;SDS011;4647;48.072;11.616;2023-11-19T02:57:53;1.60;;;1.30;;
9224;SDS011;4647;48.072;11.616;2023-11-19T03:00:24;1.50;;;1.20;;
9224;SDS011;4647;48.072;11.616;2023-11-19T03:02:59;1.47;;;1.13;;
9224;SDS011;4647;48.072;11.616;2023-11-19T03:05:35;1.83;;;1.10;;
9224;SDS011;4647;48.072;11.616;2023-11-19T03:08:05;4.67;;;4.27;;
9224;SDS011;4647;48.072;11.616;2023-11-19T03:10:34;1.47;;;1.30;;
9224;SDS011;4647;48.072;11.616;2023-11-19T03:13:06;1.23;;;1.13;;
9224;SDS011;4647;48.072;11.616;2023-11-19T03:15:39;1.63;;;1.50;;
9224;SDS011;4647;48.072;11.616;2023-11-19T03:18:08;1.30;;;1.20;;
9224;SDS011;4647;48.072;11.616;2023-11-19T03:20:37;0.97;;;0.93;;
9224;SDS011;4647;48.072;11.616;2023-11-19T03:23:05;1.20;;;1.10;;
9224;SDS011;4647;48.072;11.616;2023-11-19T03:25:34;1.00;;;0.90;;
9224;SDS011;4647;48.072;11.616;2023-11-19T03:28:06;1.33;;;1.20;;
9224;SDS011;4647;48.072;11.616;2023-11-19T03:30:36;2.00;;;1.03;;
9224;SDS011;4647;48.072;11.616;2023-11-19T03:33:04;1.27;;;1.00;;
9224;SDS011;4647;48.072;11.616;2023-11-19T03:35:33;1.63;;;1.20;;
9224;SDS011;4647;48.072;11.616;2023-11-19T03:38:01;2.73;;;1.20;;
9224;SDS011;4647;48.072;11.616;2023-11-19T03:40:30;1.37;;;1.00;;
9224;SDS011;4647;48.072;11.616;2023-11-19T03:42:58;1.10;;;1.00;;
9224;SDS011;4647;48.072;11.616;2023-11-19T03:45:32;2.47;;;0.90;;
9224;SDS011;4647;48.072;11.616;2023-11-19T03:48:01;1.20;;;1.10;;
9224;SDS011;4647;48.072;11.616;2023-11-19T03:50:29;1.00;;;0.90;;
9224;SDS011;4647;48.072;11.616;2023-11-19T03:52:58;1.10;;;1.00;;
9224;SDS011;4647;48.072;11.616;2023-11-19T03:55:28;1.30;;;1.20;;
9224;SDS011;4647;48.072;11.616;2023-11-19T03:57:56;2.80;;;1.00;;
9224;SDS011;4647;48.072;11.616;2023-11-19T04:00:22;1.30;;;1.00;;
9224;SDS011;4647;48.072;11.616;2023-11-19T04:02:55;1.23;;;1.10;;
9224;SDS011;4647;48.072;11.616;2023-11-19T04:05:23;0.83;;;0.83;;
9224;SDS011;4647;48.072;11.616;2023-11-19T04:07:52;1.00;;;0.90;;
9224;SDS011;4647;48.072;11.616;2023-11-19T04:10:20;0.90;;;0.90;;
9224;SDS011;4647;48.072;11.616;2023-11-19T04:12:49;0.90;;;0.90;;
9224;SDS011;4647;48.072;11.616;2023-11-19T04:15:17;1.00;;;0.90;;
9224;SDS011;4647;48.072;11.616;2023-11-19T04:17:46;1.40;;;0.90;;
9224;SDS011;4647;48.072;11.616;2023-11-19T04:20:17;0.97;;;0.90;;
9224;SDS011;4647;48.072;11.616;2023-11-19T04:22:45;1.23;;;0.87;;
9224;SDS011;4647;48.072;11.616;2023-11-19T04:25:14;1.20;;;0.90;;
9224;SDS011;4647;48.072;11.616;2023-11-19T04:27:44;1.20;;;0.93;;
9224;SDS011;4647;48.072;11.616;2023-11-19T04:30:13;1.50;;;1.13;;
9224;SDS011;4647;48.072;11.616;2023-11-19T04:32:42;0.83;;;0.83;;
9224;SDS011;4647;48.072;11.616;2023-11-19T04:35:10;1.43;;;1.20;;
9224;SDS011;4647;48.072;11.616;2023-11-19T04:37:41;1.30;;;1.00;;
9224;SDS011;4647;48.072;11.616;2023-11-19T04:40:10;0.80;;;0.80;;
9224;SDS011;4647;48.072;11.616;2023-11-19T04:42:39;1.00;;;0.90;;
9224;SDS011;4647;48.072;11.616;2023-11-19T04:45:08;1.10;;;1.00;;
9224;SDS011;4647;48.072;11.616;2023-11-19T04:47:37;1.13;;;1.00;;
9224;SDS011;4647;48.072;11.616;2023-11-19T04:50:06;0.90;;;0.90;;
9224;SDS011;4647;48.072;11.616;2023-11-19T04:52:36;1.00;;;0.90;;
9224;SDS011;4647;48.072;11.616;2023-11-19T04:55:08;1.07;;;0.87;;
9224;SDS011;4647;48.072;11.616;2023-11-19T04:57:39;1.47;;;1.07;;
9224;SDS011;4647;48.072;11.616;2023-11-19T05:00:08;1.67;;;1.00;;
9224;SDS011;4647;48.072;11.616;2023-11-19T05:02:39;1.20;;;1.00;;
9224;SDS011;4647;48.072;11.616;2023-11-19T05:05:07;1.40;;;1.10;;
9224;SDS011;4647;48.072;11.616;2023-11-19T05:07:37;4.20;;;1.10;;
9224;SDS011;4647;48.072;11.616;2023-11-19T05:10:08;1.20;;;1.07;;
9224;SDS011;4647;48.072;11.616;2023-11-19T05:12:37;1.00;;;1.00;;
9224;SDS011;4647;48.072;11.616;2023-11-19T05:15:06;1.40;;;1.00;;
9224;SDS011;4647;48.072;11.616;2023-11-19T05:17:37;1.30;;;1.00;;
9224;SDS011;4647;48.072;11.616;2023-11-19T05:20:06;1.10;;;0.90;;
9224;SDS011;4647;48.072;11.616;2023-11-19T05:22:38;1.67;;;0.90;;
9224;SDS011;4647;48.072;11.616;2023-11-19T05:25:10;1.03;;;1.00;;
9224;SDS011;4647;48.072;11.616;2023-11-19T05:27:38;1.37;;;1.00;;
9224;SDS011;4647;48.072;11.616;2023-11-19T05:30:07;2.87;;;0.87;;
9224;SDS011;4647;48.072;11.616;2023-11-19T05:32:36;0.83;;;0.83;;
9224;SDS011;4647;48.072;11.616;2023-11-19T05:35:04;1.07;;;1.00;;
9224;SDS011;4647;48.072;11.616;2023-11-19T05:37:34;1.10;;;0.90;;
9224;SDS011;4647;48.072;11.616;2023-11-19T05:40:03;1.00;;;0.90;;
9224;SDS011;4647;48.072;11.616;2023-11-19T05:42:41;3.13;;;1.10;;
9224;SDS011;4647;48.072;11.616;2023-11-19T05:45:11;0.90;;;0.80;;
9224;SDS011;4647;48.072;11.616;2023-11-19T05:47:40;1.00;;;0.90;;
9224;SDS011;4647;48.072;11.616;2023-11-19T05:50:09;2.17;;;0.93;;
9224;SDS011;4647;48.072;11.616;2023-11-19T05:52:39;0.83;;;0.83;;
9224;SDS011;4647;48.072;11.616;2023-11-19T05:55:08;1.53;;;0.93;;
9224;SDS011;4647;48.072;11.616;2023-11-19T05:57:38;0.90;;;0.90;;
9224;SDS011;4647;48.072;11.616;2023-11-19T06:00:10;1.10;;;0.90;;
9224;SDS011;4647;48.072;11.616;2023-11-19T06:02:40;0.83;;;0.83;;
9224;SDS011;4647;48.072;11.616;2023-11-19T06:05:09;1.10;;;1.00;;
9224;SDS011;4647;48.072;11.616;2023-11-19T06:07:37;1.00;;;0.90;;
9224;SDS011;4647;48.072;11.616;2023-11-19T06:10:06;0.80;;;0.73;;
9224;SDS011;4647;48.072;11.616;2023-11-19T06:12:36;1.10;;;0.80;;
9224;SDS011;4647;48.072;11.616;2023-11-19T06:15:19;1.57;;;0.90;;
9224;SDS011;4647;48.072;11.616;2023-11-19T06:17:47;0.97;;;0.90;;
9224;SDS011;4647;48.072;11.616;2023-11-19T06:20:15;1.77;;;1.00;;
9224;SDS011;4647;48.072;11.616;2023-11-19T06:22:45;1.90;;;0.90;;
9224;SDS011;4647;48.072;11.616;2023-11-19T06:25:13;1.10;;;0.70;;
9224;SDS011;4647;48.072;11.616;2023-11-19T06:27:43;1.00;;;0.80;;
9224;SDS011;4647;48.072;11.616;2023-11-19T06:30:12;2.63;;;0.93;;
9224;SDS011;4647;48.072;11.616;2023-11-19T06:32:44;0.77;;;0.77;;
9224;SDS011;4647;48.072;11.616;2023-11-19T06:35:12;1.00;;;0.70;;
9224;SDS011;4647;48.072;11.616;2023-11-19T06:37:41;0.80;;;0.80;;
9224;SDS011;4647;48.072;11.616;2023-11-19T06:40:10;0.80;;;0.80;;
9224;SDS011;4647;48.072;11.616;2023-11-19T06:42:40;0.90;;;0.90;;
9224;SDS011;4647;48.072;11.616;2023-11-19T06:45:09;0.57;;;0.57;;
9224;SDS011;4647;48.072;11.616;2023-11-19T06:47:37;1.07;;;0.90;;
9224;SDS011;4647;48.072;11.616;2023-11-19T06:50:09;1.03;;;0.60;;
9224;SDS011;4647;48.072;11.616;2023-11-19T06:52:37;0.70;;;0.70;;
9224;SDS011;4647;48.072;11.616;2023-11-19T06:55:06;2.20;;;1.17;;
9224;SDS011;4647;48.072;11.616;2023-11-19T06:57:35;2.30;;;0.93;;
9224;SDS011;4647;48.072;11.616;2023-11-19T07:00:04;4.00;;;1.90;;
9224;SDS011;4647;48.072;11.616;2023-11-19T07:02:34;0.80;;;0.80;;
9224;SDS011;4647;48.072;11.616;2023-11-19T07:05:02;4.30;;;2.53;;
9224;SDS011;4647;48.072;11.616;2023-11-19T07:07:35;3.37;;;2.00;;
9224;SDS011;4647;48.072;11.616;2023-11-19T07:10:06;1.33;;;1.10;;
9224;SDS011;4647;48.072;11.616;2023-11-19T07:12:35;5.13;;;2.30;;
9224;SDS011;4647;48.072;11.616;2023-11-19T07:15:04;2.13;;;1.40;;
9224;SDS011;4647;48.072;11.616;2023-11-19T07:17:33;2.13;;;1.20;;
9224;SDS011;4647;48.072;11.616;2023-11-19T07:20:02;1.57;;;0.90;;
9224;SDS011;4647;48.072;11.616;2023-11-19T07:22:32;2.27;;;0.80;;
9224;SDS011;4647;48.072;11.616;2023-11-19T07:25:03;0.80;;;0.80;;
9224;SDS011;4647;48.072;11.616;2023-11-19T07:27:33;1.97;;;0.80;;
9224;SDS011;4647;48.072;11.616;2023-11-19T07:30:02;1.80;;;0.60;;
9224;SDS011;4647;48.072;11.616;2023-11-19T07:32:32;0.60;;;0.60;;
9224;SDS011;4647;48.072;11.616;2023-11-19T07:35:04;0.60;;;0.60;;
9224;SDS011;4647;48.072;11.616;2023-11-19T07:37:34;1.10;;;0.67;;
9224;SDS011;4647;48.072;11.616;2023-11-19T07:40:06;0.70;;;0.70;;
9224;SDS011;4647;48.072;11.616;2023-11-19T07:42:36;0.50;;;0.50;;
9224;SDS011;4647;48.072;11.616;2023-11-19T07:45:05;0.60;;;0.60;;
9224;SDS011;4647;48.072;11.616;2023-11-19T07:47:34;0.90;;;0.70;;
9224;SDS011;4647;48.072;11.616;2023-11-19T07:50:04;1.13;;;0.60;;
9224;SDS011;4647;48.072;11.616;2023-11-19T07:52:35;1.50;;;1.10;;
9224;SDS011;4647;48.072;11.616;2023-11-19T07:55:07;1.07;;;0.97;;
9224;SDS011;4647;48.072;11.616;2023-11-19T07:57:36;0.50;;;0.50;;
9224;SDS011;4647;48.072;11.616;2023-11-19T08:00:05;0.80;;;0.80;;
9224;SDS011;4647;48.072;11.616;2023-11-19T08:02:37;0.40;;;0.40;;
9224;SDS011;4647;48.072;11.616;2023-11-19T08:05:06;1.07;;;0.60;;
9224;SDS011;4647;48.072;11.616;2023-11-19T08:07:35;1.97;;;0.70;;
9224;SDS011;4647;48.072;11.616;2023-11-19T08:10:06;1.90;;;0.70;;
9224;SDS011;4647;48.072;11.616;2023-11-19T08:12:37;0.77;;;0.60;;
9224;SDS011;4647;48.072;11.616;2023-11-19T08:15:05;1.40;;;0.70;;
9224;SDS011;4647;48.072;11.616;2023-11-19T08:17:34;0.60;;;0.60;;
9224;SDS011;4647;48.072;11.616;2023-11-19T08:20:03;0.50;;;0.50;;
9224;SDS011;4647;48.072;11.616;2023-11-19T08:22:35;1.37;;;0.63;;
9224;SDS011;4647;48.072;11.616;2023-11-19T08:25:07;0.60;;;0.60;;
9224;SDS011;4647;48.072;11.616;2023-11-19T08:27:36;0.47;;;0.47;;
9224;SDS011;4647;48.072;11.616;2023-11-19T08:30:05;0.60;;;0.60;;
9224;SDS011;4647;48.072;11.616;2023-11-19T08:32:34;1.27;;;0.70;;
9224;SDS011;4647;48.072;11.616;2023-11-19T08:35:03;0.50;;;0.50;;
9224;SDS011;4647;48.072;11.616;2023-11-19T08:37:32;0.67;;;0.67;;
9224;SDS011;4647;48.072;11.616;2023-11-19T08:40:01;2.73;;;0.70;;
9224;SDS011;4647;48.072;11.616;2023-11-19T08:42:33;0.60;;;0.60;;
9224;SDS011;4647;48.072;11.616;2023-11-19T08:45:01;0.73;;;0.70;;
9224;SDS011;4647;48.072;11.616;2023-11-19T08:47:30;0.60;;;0.60;;
9224;SDS011;4647;48.072;11.616;2023-11-19T08:49:59;0.93;;;0.47;;
9224;SDS011;4647;48.072;11.616;2023-11-19T08:52:29;1.20;;;0.87;;
9224;SDS011;4647;48.072;11.616;2023-11-19T08:54:57;0.60;;;0.60;;
9224;SDS011;4647;48.072;11.616;2023-11-19T08:57:26;1.03;;;0.90;;
9224;SDS011;4647;48.072;11.616;2023-11-19T08:59:57;0.83;;;0.70;;
9224;SDS011;4647;48.072;11.616;2023-11-19T09:02:25;0.60;;;0.60;;
9224;SDS011;4647;48.072;11.616;2023-11-19T09:04:54;0.80;;;0.80;;
9224;SDS011;4647;48.072;11.616;2023-11-19T09:07:23;2.23;;;1.67;;
9224;SDS011;4647;48.072;11.616;2023-11-19T09:09:52;1.23;;;0.67;;
9224;SDS011;4647;48.072;11.616;2023-11-19T09:12:21;1.13;;;0.80;;
9224;SDS011;4647;48.072;11.616;2023-11-19T09:14:49;1.80;;;0.80;;
9224;SDS011;4647;48.072;11.616;2023-11-19T09:17:20;1.60;;;0.80;;
9224;SDS011;4647;48.072;11.616;2023-11-19T09:19:49;1.47;;;0.90;;
9224;SDS011;4647;48.072;11.616;2023-11-19T09:22:17;0.83;;;0.83;;
9224;SDS011;4647;48.072;11.616;2023-11-19T09:24:46;0.70;;;0.70;;
9224;SDS011;4647;48.072;11.616;2023-11-19T09:27:14;1.00;;;0.90;;
9224;SDS011;4647;48.072;11.616;2023-11-19T09:29:43;1.20;;;0.80;;
9224;SDS011;4647;48.072;11.616;2023-11-19T09:32:15;1.37;;;1.20;;
9224;SDS011;4647;48.072;11.616;2023-11-19T09:34:46;2.37;;;1.60;;
9224;SDS011;4647;48.072;11.616;2023-11-19T09:37:14;3.37;;;2.20;;
9224;SDS011;4647;48.072;11.616;2023-11-19T09:39:43;1.20;;;1.10;;
9224;SDS011;4647;48.072;11.616;2023-11-19T09:42:11;4.87;;;3.10;;
9224;SDS011;4647;48.072;11.616;2023-11-19T09:44:42;2.23;;;1.77;;
9224;SDS011;4647;48.072;11.616;2023-11-19T09:47:11;1.90;;;1.40;;
9224;SDS011;4647;48.072;11.616;2023-11-19T09:49:41;1.00;;;0.90;;
9224;SDS011;4647;48.072;11.616;2023-11-19T09:52:13;2.60;;;1.00;;
9224;SDS011;4647;48.072;11.616;2023-11-19T09:54:42;0.97;;;0.90;;
9224;SDS011;4647;48.072;11.616;2023-11-19T09:57:10;1.07;;;0.90;;
9224;SDS011;4647;48.072;11.616;2023-11-19T09:59:42;1.07;;;0.70;;
9224;SDS011;4647;48.072;11.616;2023-11-19T10:02:13;0.90;;;0.90;;
9224;SDS011;4647;48.072;11.616;2023-11-19T10:04:42;0.90;;;0.90;;
9224;SDS011;4647;48.072;11.616;2023-11-19T10:07:20;0.90;;;0.90;;
9224;SDS011;4647;48.072;11.616;2023-11-19T10:09:48;1.00;;;0.90;;
9224;SDS011;4647;48.072;11.616;2023-11-19T10:12:16;0.70;;;0.70;;
9224;SDS011;4647;48.072;11.616;2023-11-19T10:14:45;1.83;;;1.00;;
9224;SDS011;4647;48.072;11.616;2023-11-19T10:17:16;1.10;;;1.00;;
9224;SDS011;4647;48.072;11.616;2023-11-19T10:19:44;1.00;;;0.90;;
9224;SDS011;4647;48.072;11.616;2023-11-19T10:22:13;0.90;;;0.90;;
9224;SDS011;4647;48.072;11.616;2023-11-19T10:24:46;0.80;;;0.80;;
9224;SDS011;4647;48.072;11.616;2023-11-19T10:27:14;0.80;;;0.80;;
9224;SDS011;4647;48.072;11.616;2023-11-19T10:29:44;1.03;;;0.90;;
9224;SDS011;4647;48.072;11.616;2023-11-19T10:32:13;0.80;;;0.80;;
9224;SDS011;4647;48.072;11.616;2023-11-19T10:34:42;0.97;;;0.90;;
9224;SDS011;4647;48.072;11.616;2023-11-19T10:37:13;1.10;;;0.93;;
9224;SDS011;4647;48.072;11.616;2023-11-19T10:39:59;1.87;;;1.10;;
9224;SDS011;4647;48.072;11.616;2023-11-19T10:42:30;0.70;;;0.70;;
9224;SDS011;4647;48.072;11.616;2023-11-19T10:44:58;0.80;;;0.70;;
9224;SDS011;4647;48.072;11.616;2023-11-19T10:47:27;1.63;;;0.70;;
9224;SDS011;4647;48.072;11.616;2023-11-19T10:49:55;1.00;;;0.90;;
9224;SDS011;4647;48.072;11.616;2023-11-19T10:52:24;1.23;;;0.90;;
9224;SDS011;4647;48.072;11.616;2023-11-19T10:54:55;0.83;;;0.83;;
9224;SDS011;4647;48.072;11.616;2023-11-19T10:57:31;1.80;;;0.77;;
9224;SDS011;4647;48.072;11.616;2023-11-19T11:00:05;0.70;;;0.70;;
9224;SDS011;4647;48.072;11.616;2023-11-19T11:02:38;0.70;;;0.70;;
9224;SDS011;4647;48.072;11.616;2023-11-19T11:05:10;2.57;;;0.90;;
9224;SDS011;4647;48.072;11.616;2023-11-19T11:07:40;0.60;;;0.60;;
9224;SDS011;4647;48.072;11.616;2023-11-19T11:10:14;1.10;;;0.80;;
9224;SDS011;4647;48.072;11.616;2023-11-19T11:12:47;0.90;;;0.70;;
9224;SDS011;4647;48.072;11.616;2023-11-19T11:15:21;1.30;;;1.20;;
9224;SDS011;4647;48.072;11.616;2023-11-19T11:17:50;0.80;;;0.80;;
9224;SDS011;4647;48.072;11.616;2023-11-19T11:20:22;1.27;;;1.00;;
9224;SDS011;4647;48.072;11.616;2023-11-19T11:22:53;1.10;;;1.00;;
9224;SDS011;4647;48.072;11.616;2023-11-19T11:25:37;1.23;;;0.87;;
9224;SDS011;4647;48.072;11.616;2023-11-19T11:28:20;1.53;;;0.97;;
9224;SDS011;4647;48.072;11.616;2023-11-19T11:31:03;0.70;;;0.70;;
9224;SDS011;4647;48.072;11.616;2023-11-19T11:33:54;0.60;;;0.60;;
9224;SDS011;4647;48.072;11.616;2023-11-19T11:36:39;0.77;;;0.57;;
9224;SDS011;4647;48.072;11.616;2023-11-19T11:39:18;0.87;;;0.70;;
9224;SDS011;4647;48.072;11.616;2023-11-19T11:45:01;1.47;;;0.73;;
9224;SDS011;4647;48.072;11.616;2023-11-19T11:50:31;1.40;;;0.80;;
9224;SDS011;4647;48.072;11.616;2023-11-19T11:53:18;0.70;;;0.70;;
9224;SDS011;4647;48.072;11.616;2023-11-19T11:55:57;1.10;;;1.00;;
9224;SDS011;4647;48.072;11.616;2023-11-19T11:58:31;1.37;;;0.70;;
9224;SDS011;4647;48.072;11.616;2023-11-19T12:01:05;0.70;;;0.70;;
9224;SDS011;4647;48.072;11.616;2023-11-19T12:03:34;1.10;;;0.60;;
9224;SDS011;4647;48.072;11.616;2023-11-19T12:06:05;1.07;;;0.97;;
9224;SDS011;4647;48.072;11.616;2023-11-19T12:08:34;0.80;;;0.80;;
9224;SDS011;4647;48.072;11.616;2023-11-19T12:11:03;1.00;;;0.90;;
9224;SDS011;4647;48.072;11.616;2023-11-19T12:16:31;1.47;;;0.80;;
9224;SDS011;4647;48.072;11.616;2023-11-19T12:19:03;0.87;;;0.77;;
9224;SDS011;4647;48.072;11.616;2023-11-19T12:21:33;1.10;;;0.70;;
9224;SDS011;4647;48.072;11.616;2023-11-19T12:24:02;1.40;;;0.70;;
9224;SDS011;4647;48.072;11.616;2023-11-19T12:26:33;0.70;;;0.70;;
9224;SDS011;4647;48.072;11.616;2023-11-19T12:29:00;0.70;;;0.70;;
9224;SDS011;4647;48.072;11.616;2023-11-19T12:31:31;0.70;;;0.70;;
9224;SDS011;4647;48.072;11.616;2023-11-19T12:34:05;0.57;;;0.57;;
9224;SDS011;4647;48.072;11.616;2023-11-19T12:36:36;2.43;;;0.70;;
9224;SDS011;4647;48.072;11.616;2023-11-19T12:39:06;1.47;;;0.80;;
9224;SDS011;4647;48.072;11.616;2023-11-19T12:41:48;1.97;;;0.80;;
9224;SDS011;4647;48.072;11.616;2023-11-19T12:44:17;3.07;;;0.80;;
9224;SDS011;4647;48.072;11.616;2023-11-19T12:46:48;1.17;;;1.00;;
9224;SDS011;4647;48.072;11.616;2023-11-19T12:49:28;4.83;;;1.97;;
9224;SDS011;4647;48.072;11.616;2023-11-19T12:51:56;1.70;;;0.83;;
9224;SDS011;4647;48.072;11.616;2023-11-19T12:54:34;2.93;;;1.03;;
9224;SDS011;4647;48.072;11.616;2023-11-19T12:57:03;2.27;;;0.90;;
9224;SDS011;4647;48.072;11.616;2023-11-19T12:59:35;0.80;;;0.80;;
9224;SDS011;4647;48.072;11.616;2023-11-19T13:02:07;2.70;;;0.90;;
9224;SDS011;4647;48.072;11.616;2023-11-19T13:04:36;0.83;;;0.83;;
9224;SDS011;4647;48.072;11.616;2023-11-19T13:07:05;1.07;;;0.90;;
9224;SDS011;4647;48.072;11.616;2023-11-19T13:09:34;3.60;;;2.13;;
9224;SDS011;4647;48.072;11.616;2023-11-19T13:12:12;1.67;;;1.30;;
9224;SDS011;4647;48.072;11.616;2023-11-19T13:14:42;4.97;;;3.00;;
9224;SDS011;4647;48.072;11.616;2023-11-19T13:17:17;1.10;;;0.83;;
9224;SDS011;4647;48.072;11.616;2023-11-19T13:19:46;2.87;;;0.83;;
9224;SDS011;4647;48.072;11.616;2023-11-19T13:22:16;0.80;;;0.80;;
9224;SDS011;4647;48.072;11.616;2023-11-19T13:24:44;0.80;;;0.80;;
9224;SDS011;4647;48.072;11.616;2023-11-19T13:27:13;1.10;;;1.00;;
9224;SDS011;4647;48.072;11.616;2023-11-19T13:29:41;1.37;;;0.90;;
9224;SDS011;4647;48.072;11.616;2023-11-19T13:32:10;1.10;;;1.00;;
9224;SDS011;4647;48.072;11.616;2023-11-19T13:34:41;1.73;;;0.70;;
9224;SDS011;4647;48.072;11.616;2023-11-19T13:37:09;0.97;;;0.73;;
9224;SDS011;4647;48.072;11.616;2023-11-19T13:39:41;1.73;;;0.90;;
9224;SDS011;4647;48.072;11.616;2023-11-19T13:42:09;0.70;;;0.70;;
9224;SDS011;4647;48.072;11.616;2023-11-19T13:44:38;1.07;;;0.70;;
9224;SDS011;4647;48.072;11.616;2023-11-19T13:47:06;1.37;;;0.90;;
9224;SDS011;4647;48.072;11.616;2023-11-19T13:49:41;1.40;;;1.10;;
9224;SDS011;4647;48.072;11.616;2023-11-19T13:52:10;1.20;;;1.00;;
9224;SDS011;4647;48.072;11.616;2023-11-19T13:54:38;1.10;;;1.00;;
9224;SDS011;4647;48.072;11.616;2023-11-19T13:57:07;1.20;;;0.90;;
9224;SDS011;4647;48.072;11.616;2023-11-19T13:59:39;2.17;;;1.00;;
9224;SDS011;4647;48.072;11.616;2023-11-19T14:02:08;2.07;;;1.10;;
9224;SDS011;4647;48.072;11.616;2023-11-19T14:04:36;1.70;;;1.40;;
9224;SDS011;4647;48.072;11.616;2023-11-19T14:07:07;0.90;;;0.73;;
9224;SDS011;4647;48.072;11.616;2023-11-19T14:09:35;2.50;;;1.00;;
9224;SDS011;4647;48.072;11.616;2023-11-19T14:12:06;1.20;;;1.10;;
9224;SDS011;4647;48.072;11.616;2023-11-19T14:14:35;1.53;;;1.00;;
9224;SDS011;4647;48.072;11.616;2023-11-19T14:17:04;1.00;;;0.90;;
9224;SDS011;4647;48.072;11.616;2023-11-19T14:19:33;1.50;;;1.37;;
9224;SDS011;4647;48.072;11.616;2023-11-19T14:22:01;1.53;;;1.10;;
9224;SDS011;4647;48.072;11.616;2023-11-19T14:24:32;1.17;;;1.07;;
9224;SDS011;4647;48.072;11.616;2023-11-19T14:27:00;2.33;;;1.43;;
9224;SDS011;4647;48.072;11.616;2023-11-19T14:29:29;1.30;;;0.90;;
9224;SDS011;4647;48.072;11.616;2023-11-19T14:31:59;1.13;;;0.90;;
9224;SDS011;4647;48.072;11.616;2023-11-19T14:34:28;1.73;;;1.00;;
9224;SDS011;4647;48.072;11.616;2023-11-19T14:36:57;1.53;;;0.90;;
9224;SDS011;4647;48.072;11.616;2023-11-19T14:39:25;1.13;;;0.90;;
9224;SDS011;4647;48.072;11.616;2023-11-19T14:41:58;2.63;;;0.90;;
9224;SDS011;4647;48.072;11.616;2023-11-19T14:44:29;1.17;;;0.90;;
9224;SDS011;4647;48.072;11.616;2023-11-19T14:46:59;1.43;;;0.90;;
9224;SDS011;4647;48.072;11.616;2023-11-19T14:49:27;0.90;;;0.80;;
9224;SDS011;4647;48.072;11.616;2023-11-19T14:51:56;1.17;;;1.07;;
9224;SDS011;4647;48.072;11.616;2023-11-19T14:54:26;1.53;;;0.90;;
9224;SDS011;4647;48.072;11.616;2023-11-19T14:56:56;1.30;;;0.70;;
9224;SDS011;4647;48.072;11.616;2023-11-19T14:59:28;0.80;;;0.80;;
9224;SDS011;4647;48.072;11.616;2023-11-19T15:01:58;0.90;;;0.77;;
9224;SDS011;4647;48.072;11.616;2023-11-19T15:04:26;1.20;;;0.97;;
9224;SDS011;4647;48.072;11.616;2023-11-19T15:06:56;1.20;;;1.00;;
9224;SDS011;4647;48.072;11.616;2023-11-19T15:09:25;1.27;;;0.90;;
9224;SDS011;4647;48.072;11.616;2023-11-19T15:11:54;2.43;;;1.00;;
9224;SDS011;4647;48.072;11.616;2023-11-19T15:14:27;0.87;;;0.87;;
9224;SDS011;4647;48.072;11.616;2023-11-19T15:16:57;1.60;;;1.30;;
9224;SDS011;4647;48.072;11.616;2023-11-19T15:19:26;1.27;;;0.90;;
9224;SDS011;4647;48.072;11.616;2023-11-19T15:21:54;1.37;;;0.90;;
9224;SDS011;4647;48.072;11.616;2023-11-19T15:24:23;1.57;;;0.90;;
9224;SDS011;4647;48.072;11.616;2023-11-19T15:26:53;1.83;;;1.10;;